Time;durP1;ratioP1;P1;durP2;ratioP2;P2;SDS_P1;SDS_P2;PMS_P1;PMS_P2;Temp;Humidity;BMP_temperature;BMP_pressure;BME280_temperature;BME280_humidity;BME280_pressure;Samples;Min_cycle;Max_cycle;Signal;HPM_P1;HPM_P2
2023/08/10 00:04:30;;;;;;;2.10;1.20;;;;;;;16.34;100.00;98101.22;18366362;32;20095;-58
2023/08/10 00:14:33;;;;;;;3.05;1.40;;;;;;;16.22;100.00;98098.94;18366335;32;20045;-58
2023/08/10 00:24:37;;;;;;;3.08;1.30;;;;;;;16.08;100.00;98103.53;18365913;32;20358;-58
2023/08/10 00:34:41;;;;;;;;;;;;;;;15.95;100.00;98096.09;18359295;32;20046;-58
2023/08/10 00:44:44;;;;;;;2.47;1.48;;;;;;;15.82;100.00;98090.25;18366216;32;19949;-58
2023/08/10 00:54:46;;;;;;;3.35;1.80;;;;;;;15.64;100.00;98078.22;18433110;32;20409;-58
2023/08/10 01:04:49;;;;;;;3.05;1.40;;;;;;;15.48;100.00;98074.06;18426174;32;20090;-58
2023/08/10 01:15:00;;;;;;;2.30;1.50;;;;;;;15.33;100.00;98078.59;18439674;32;20099;-58
2023/08/10 01:25:08;;;;;;;1.95;1.58;;;;;;;15.14;100.00;98092.16;18438435;32;20087;-58
2023/08/10 01:35:11;;;;;;;2.42;1.30;;;;;;;15.02;100.00;98097.19;18437646;32;20071;-58
2023/08/10 01:45:14;;;;;;;3.87;1.30;;;;;;;14.83;100.00;98102.56;18423464;32;20059;-58
2023/08/10 01:55:17;;;;;;;1.65;1.20;;;;;;;14.71;100.00;98108.41;18370206;32;20347;-58
2023/08/10 02:05:20;;;;;;;1.80;1.40;;;;;;;14.58;100.00;98107.94;18370869;32;20050;-58
2023/08/10 02:15:23;;;;;;;2.70;1.00;;;;;;;14.49;100.00;98097.94;18371389;32;20392;-58
2023/08/10 02:25:25;;;;;;;1.25;1.12;;;;;;;14.37;100.00;98098.31;18363127;32;20099;-58
2023/08/10 02:35:28;;;;;;;3.40;1.20;;;;;;;14.19;100.00;98097.88;18369004;32;20054;-58
2023/08/10 02:45:31;;;;;;;1.83;1.30;;;;;;;14.03;100.00;98102.63;18369575;32;20367;-58
2023/08/10 02:55:34;;;;;;;3.08;1.48;;;;;;;13.94;100.00;98101.59;18367638;32;20050;-58
2023/08/10 03:05:36;;;;;;;1.48;1.20;;;;;;;13.82;100.00;98096.50;18368584;32;20376;-58
2023/08/10 03:15:39;;;;;;;1.83;1.20;;;;;;;13.74;100.00;98102.53;18367534;32;20054;-58
2023/08/10 03:25:42;;;;;;;2.58;1.40;;;;;;;13.66;100.00;98101.22;18367588;32;20126;-58
2023/08/10 03:35:45;;;;;;;2.15;1.30;;;;;;;13.59;100.00;98100.69;18367049;32;20054;-58
2023/08/10 03:45:49;;;;;;;2.53;1.30;;;;;;;13.51;100.00;98112.13;18367464;32;20135;-58
2023/08/10 03:55:52;;;;;;;2.10;1.43;;;;;;;13.42;100.00;98114.62;18366426;32;20049;-58
2023/08/10 04:05:55;;;;;;;2.62;1.55;;;;;;;13.34;100.00;98118.69;18365241;32;20041;-58
2023/08/10 04:15:59;;;;;;;1.97;1.73;;;;;;;13.20;100.00;98123.09;18359570;32;20075;-58
2023/08/10 04:26:03;;;;;;;2.20;1.30;;;;;;;13.16;100.00;98136.41;18375646;32;20062;-58
2023/08/10 04:36:07;;;;;;;3.37;1.60;;;;;;;13.17;100.00;98129.88;18377423;32;20045;-58
2023/08/10 04:46:11;;;;;;;3.72;1.48;;;;;;;13.09;100.00;98154.06;18378549;32;21792;-58
2023/08/10 04:56:16;;;;;;;1.77;1.40;;;;;;;13.03;100.00;98166.81;18440565;32;20066;-58
2023/08/10 05:06:22;;;;;;;1.92;1.37;;;;;;;13.10;100.00;98169.25;18439596;32;20065;-58
2023/08/10 05:16:27;;;;;;;2.20;1.43;;;;;;;13.12;100.00;98175.25;18438776;32;20050;-58
2023/08/10 05:26:38;;;;;;;2.50;1.90;;;;;;;13.17;100.00;98176.03;18438609;32;20071;-58
2023/08/10 05:36:48;;;;;;;2.22;1.45;;;;;;;13.39;100.00;98185.81;18423450;32;20049;-58
2023/08/10 05:46:51;;;;;;;2.12;1.50;;;;;;;13.65;100.00;98185.72;18422890;32;20057;-57
2023/08/10 05:56:55;;;;;;;3.25;1.70;;;;;;;13.92;100.00;98189.97;18436880;32;20076;-58
2023/08/10 06:07:01;;;;;;;5.53;1.90;;;;;;;14.20;100.00;98192.00;18429556;32;20069;-58
2023/08/10 06:17:05;;;;;;;2.72;1.60;;;;;;;14.56;100.00;98205.34;18421556;32;20387;-58
2023/08/10 06:27:13;;;;;;;4.50;1.98;;;;;;;14.96;100.00;98205.34;18434918;32;20098;-58
2023/08/10 06:37:17;;;;;;;3.53;1.80;;;;;;;15.38;100.00;98206.59;18434030;32;20053;-58
2023/08/10 06:47:22;;;;;;;3.83;2.70;;;;;;;15.82;100.00;98199.31;18418261;32;20137;-58
2023/08/10 06:57:26;;;;;;;3.80;2.25;;;;;;;16.20;100.00;98218.50;18418862;32;20041;-58
2023/08/10 07:07:29;;;;;;;6.17;3.63;;;;;;;16.61;100.00;98206.19;18432315;32;20105;-58
2023/08/10 07:17:33;;;;;;;7.43;3.35;;;;;;;17.06;100.00;98217.50;18431978;32;20045;-58
2023/08/10 07:27:37;;;;;;;4.10;3.00;;;;;;;17.35;100.00;98215.63;18417409;32;20064;-58
2023/08/10 07:37:40;;;;;;;;;;;;;;;17.70;100.00;98214.16;18431869;32;20068;-58
2023/08/10 07:47:43;;;;;;;3.65;2.30;;;;;;;18.07;100.00;98206.06;18430449;32;19960;-58
2023/08/10 07:57:46;;;;;;;2.30;1.80;;;;;;;18.50;100.00;98208.41;18424316;32;20069;-58
2023/08/10 08:07:50;;;;;;;2.90;1.70;;;;;;;18.94;100.00;98201.34;18443557;32;20057;-58
2023/08/10 08:18:30;;;;;;;3.70;2.00;;;;;;;19.41;100.00;98195.50;18442686;32;20110;-58
2023/08/10 08:28:33;;;;;;;2.62;1.48;;;;;;;19.89;100.00;98179.41;18427625;32;20046;-58
2023/08/10 08:38:37;;;;;;;2.00;1.70;;;;;;;20.29;100.00;98176.56;18441505;32;20045;-58
2023/08/10 08:48:42;;;;;;;3.00;1.92;;;;;;;20.73;100.00;98169.13;18433895;32;20094;-58
2023/08/10 08:58:46;;;;;;;2.15;1.67;;;;;;;21.16;100.00;98172.97;18440110;32;20065;-58
2023/08/10 09:08:50;;;;;;;3.40;1.95;;;;;;;21.57;100.00;98160.56;18425349;32;20060;-58
2023/08/10 09:18:53;;;;;;;;;;;;;;;21.98;100.00;98158.19;18425188;32;20040;-58
2023/08/10 09:28:57;;;;;;;2.62;2.12;;;;;;;22.32;100.00;98146.16;18424290;32;19941;-58
2023/08/10 09:39:00;;;;;;;3.03;1.83;;;;;;;22.71;100.00;98139.69;18437654;32;20068;-58
2023/08/10 09:49:07;;;;;;;2.40;1.52;;;;;;;23.07;100.00;98124.41;18423411;32;20053;-58
2023/08/10 09:59:12;;;;;;;2.80;1.73;;;;;;;23.41;100.00;98109.41;18436380;32;20103;-58
2023/08/10 10:09:16;;;;;;;3.65;1.50;;;;;;;23.80;100.00;98106.28;18435755;32;20124;-58
2023/08/10 10:19:20;;;;;;;3.45;1.60;;;;;;;24.02;100.00;98097.53;18434440;32;20143;-58
2023/08/10 10:29:36;;;;;;;1.50;1.40;;;;;;;24.32;94.39;98088.13;18434930;32;20437;-58
2023/08/10 10:44:21;;;;;;;2.78;2.12;;;;;;;25.84;87.64;98087.25;18406076;32;20227;-58
2023/08/10 10:54:27;;;;;;;2.40;1.50;;;;;;;25.84;87.64;98087.25;18347556;32;20069;-58
2023/08/10 11:04:31;;;;;;;2.50;1.60;;;;;;;25.48;89.05;98100.28;18347327;32;20070;-58
2023/08/10 11:14:36;;;;;;;1.90;1.50;;;;;;;25.85;82.82;98094.41;18346861;32;20367;-58
2023/08/10 11:24:40;;;;;;;2.42;1.40;;;;;;;26.08;74.12;98085.44;18346067;32;20057;-58
2023/08/10 11:34:43;;;;;;;2.28;1.42;;;;;;;26.29;73.26;98085.09;18283032;32;20066;-58
2023/08/10 11:44:51;;;;;;;2.87;1.67;;;;;;;26.65;72.00;98089.34;18280744;32;20113;-58
2023/08/10 11:54:56;;;;;;;3.15;1.87;;;;;;;27.03;67.98;98082.16;18241910;32;20058;-58
2023/08/10 12:05:05;;;;;;;2.87;1.77;;;;;;;27.35;68.09;98078.31;18238836;32;20050;-58
2023/08/10 12:15:15;;;;;;;2.10;1.50;;;;;;;27.55;59.00;98077.06;18224756;32;20051;-58
2023/08/10 12:25:20;;;;;;;2.57;1.90;;;;;;;27.88;57.84;98069.22;18237986;32;20077;-58
2023/08/10 12:35:24;;;;;;;3.60;1.60;;;;;;;28.34;60.49;98071.00;18237415;32;20062;-58
2023/08/10 12:45:28;;;;;;;1.65;1.52;;;;;;;28.70;56.01;98061.12;18236348;32;20342;-58
2023/08/10 12:55:32;;;;;;;2.10;1.58;;;;;;;28.60;48.01;98053.44;18236357;32;20100;-58
2023/08/10 13:05:36;;;;;;;2.40;1.50;;;;;;;29.19;59.20;98066.72;18235393;32;20370;-58
2023/08/10 13:15:40;;;;;;;3.37;1.65;;;;;;;29.86;55.26;98070.44;18235786;32;20050;-58
2023/08/10 13:25:43;;;;;;;3.20;1.75;;;;;;;30.22;47.46;98062.25;18235208;32;20055;-58
2023/08/10 13:35:47;;;;;;;1.80;1.52;;;;;;;30.83;51.76;98042.91;18234578;32;20054;-58
2023/08/10 13:45:52;;;;;;;6.75;1.80;;;;;;;30.92;42.19;98034.16;18233399;32;20113;-58
2023/08/10 13:55:56;;;;;;;2.87;1.90;;;;;;;30.89;43.30;98034.94;18234000;32;20081;-58
2023/08/10 14:06:08;;;;;;;3.62;1.95;;;;;;;31.53;49.64;98036.94;18233487;32;20071;-58
2023/08/10 14:16:11;;;;;;;2.15;1.60;;;;;;;31.40;39.50;98033.75;18232742;32;20054;-58
2023/08/10 14:26:16;;;;;;;2.40;1.70;;;;;;;31.66;45.47;98033.75;18232378;32;20051;-59
2023/08/10 14:36:20;;;;;;;3.90;1.70;;;;;;;32.64;48.78;98026.53;18231728;32;20089;-59
2023/08/10 14:46:24;;;;;;;3.28;1.80;;;;;;;32.14;43.08;98015.59;18231026;32;20469;-59
2023/08/10 14:56:27;;;;;;;2.10;1.90;;;;;;;32.42;41.93;98020.28;18230217;32;20055;-58
2023/08/10 15:06:31;;;;;;;1.85;1.55;;;;;;;32.13;36.64;98011.22;18229658;32;20374;-58
2023/08/10 15:16:35;;;;;;;3.70;2.15;;;;;;;31.48;40.17;98005.78;18230319;32;20086;-59
2023/08/10 15:26:40;;;;;;;1.92;1.70;;;;;;;30.78;37.98;97986.66;18235699;32;20506;-58
2023/08/10 15:36:44;;;;;;;2.85;1.58;;;;;;;29.70;41.91;97971.19;18238693;32;20426;-58
2023/08/10 15:46:47;;;;;;;2.47;1.85;;;;;;;29.36;41.58;97974.19;18239771;32;20109;-58
2023/08/10 15:56:51;;;;;;;2.60;1.75;;;;;;;29.62;42.95;97975.13;18237745;32;20088;-58
2023/08/10 16:06:54;;;;;;;2.72;1.65;;;;;;;29.26;42.24;97966.56;18239237;32;20055;-58
2023/08/10 16:17:02;;;;;;;2.60;1.58;;;;;;;28.89;43.08;97968.25;18224302;32;20073;-58
2023/08/10 16:27:05;;;;;;;1.90;1.70;;;;;;;28.48;40.99;97948.81;18237973;32;20081;-58
2023/08/10 16:37:09;;;;;;;2.65;1.75;;;;;;;28.47;42.34;97949.19;18236964;32;20368;-58
2023/08/10 16:47:13;;;;;;;3.72;1.65;;;;;;;28.74;43.00;97941.50;18236962;32;20105;-58
2023/08/10 16:57:16;;;;;;;2.40;1.70;;;;;;;28.30;42.95;97926.38;18235590;32;20094;-58
2023/08/10 17:07:20;;;;;;;2.10;1.70;;;;;;;27.83;43.44;97933.38;18236174;32;20054;-58
2023/08/10 17:17:23;;;;;;;1.67;1.37;;;;;;;27.67;44.34;97945.50;18234688;32;20046;-58
2023/08/10 17:27:27;;;;;;;2.45;1.70;;;;;;;27.27;50.15;97963.59;18221805;32;20084;-58
2023/08/10 17:37:33;;;;;;;2.05;1.30;;;;;;;26.79;54.04;97977.09;18221234;32;20042;-58
2023/08/10 17:47:38;;;;;;;2.45;1.60;;;;;;;26.26;60.92;97984.06;18234558;32;20476;-58
2023/08/10 17:57:41;;;;;;;3.05;1.75;;;;;;;25.79;72.04;97999.72;18234167;32;20050;-58
2023/08/10 18:07:44;;;;;;;1.92;1.55;;;;;;;25.29;81.09;98006.88;18219337;32;20077;-58
2023/08/10 18:17:48;;;;;;;3.50;1.52;;;;;;;24.79;84.73;98029.41;18232893;32;20069;-58
2023/08/10 18:27:52;;;;;;;3.22;1.50;;;;;;;24.31;93.17;98032.06;18232340;32;20062;-58
2023/08/10 18:37:57;;;;;;;2.65;1.60;;;;;;;23.83;100.00;98033.78;18218367;32;20094;-58
2023/08/10 18:48:03;;;;;;;1.77;1.40;;;;;;;23.32;100.00;98042.50;18231630;32;20054;-58
2023/08/10 18:58:06;;;;;;;1.92;1.42;;;;;;;22.89;100.00;98057.63;18233124;32;20063;-58
2023/08/10 19:08:10;;;;;;;2.42;1.55;;;;;;;22.47;100.00;98069.56;18240418;32;20505;-58
2023/08/10 19:18:13;;;;;;;1.98;1.50;;;;;;;22.02;100.00;98078.50;18227652;32;20050;-58
2023/08/10 19:28:16;;;;;;;2.92;1.42;;;;;;;21.65;100.00;98095.56;18240790;32;20382;-58
2023/08/10 19:38:19;;;;;;;;;;;;;;;21.32;100.00;98109.97;18238904;32;20063;-58
2023/08/10 19:48:22;;;;;;;3.60;1.73;;;;;;;20.97;100.00;98119.16;18239936;32;19962;-58
2023/08/10 19:58:26;;;;;;;;;;;;;;;20.65;100.00;98124.03;18239372;32;20068;-58
2023/08/10 20:08:30;;;;;;;1.75;1.40;;;;;;;20.33;100.00;98127.31;18237464;32;19945;-58
2023/08/10 20:18:34;;;;;;;2.10;1.60;;;;;;;20.03;100.00;98127.13;18238118;32;20062;-58
2023/08/10 20:28:37;;;;;;;3.00;1.67;;;;;;;19.74;100.00;98126.53;18237971;32;20098;-58
2023/08/10 20:38:40;;;;;;;2.30;1.63;;;;;;;19.47;100.00;98127.59;18236949;32;20058;-58
2023/08/10 20:48:42;;;;;;;2.60;1.77;;;;;;;19.22;100.00;98146.38;18222985;32;20066;-58
2023/08/10 20:58:46;;;;;;;3.40;2.07;;;;;;;19.03;100.00;98141.09;18236647;32;20089;-58
2023/08/10 21:08:51;;;;;;;3.50;1.87;;;;;;;18.86;100.00;98146.47;18236189;32;20104;-58
2023/08/10 21:18:54;;;;;;;2.62;1.90;;;;;;;18.63;100.00;98147.28;18235294;32;20551;-58
2023/08/10 21:28:57;;;;;;;4.00;2.22;;;;;;;18.44;100.00;98152.12;18235242;32;20067;-58
2023/08/10 21:39:01;;;;;;;3.42;1.95;;;;;;;18.32;100.00;98155.41;18234543;32;20062;-58
2023/08/10 21:49:05;;;;;;;3.03;2.50;;;;;;;18.15;100.00;98161.56;18234321;32;20363;-58
2023/08/10 21:59:09;;;;;;;4.65;3.20;;;;;;;17.98;100.00;98169.59;18232645;32;20090;-58
2023/08/10 22:09:13;;;;;;;5.45;3.47;;;;;;;17.74;100.00;98173.34;18233340;32;20070;-58
2023/08/10 22:19:17;;;;;;;5.60;3.10;;;;;;;17.57;100.00;98174.75;18233009;32;20101;-58
2023/08/10 22:29:20;;;;;;;2.90;2.27;;;;;;;17.43;100.00;98179.41;18232713;32;20146;-57
2023/08/10 22:39:24;;;;;;;5.43;2.60;;;;;;;17.28;100.00;98167.66;18231527;32;20110;-58
2023/08/10 22:49:28;;;;;;;2.65;2.10;;;;;;;17.17;100.00;98160.75;18218749;32;20434;-58
2023/08/10 22:59:55;;;;;;;4.30;2.53;;;;;;;17.02;100.00;98175.50;18217937;32;20050;-58
2023/08/10 23:10:41;;;;;;;3.37;2.83;;;;;;;16.88;100.00;98178.16;18226649;32;20109;-58
2023/08/10 23:21:23;;;;;;;2.95;2.17;;;;;;;16.75;100.00;98182.47;18230344;32;20391;-58
2023/08/10 23:31:25;;;;;;;3.35;2.40;;;;;;;16.63;100.00;98193.03;18229875;32;20058;-58
2023/08/10 23:41:28;;;;;;;3.25;2.33;;;;;;;16.50;100.00;98201.97;18229296;32;20065;-57
2023/08/10 23:51:31;;;;;;;3.20;2.30;;;;;;;16.37;100.00;98195.34;18237646;32;20371;-58
